sensor_id;sensor_type;location;lat;lon;timestamp;temperature;humidity
27781;DHT22;15167;1.318;103.762;2023-03-12T00:00:30;24.70;99.90
27781;DHT22;15167;1.318;103.762;2023-03-12T00:02:56;24.70;99.90
27781;DHT22;15167;1.318;103.762;2023-03-12T00:05:22;24.80;99.90
27781;DHT22;15167;1.318;103.762;2023-03-12T00:07:50;24.80;99.90
27781;DHT22;15167;1.318;103.762;2023-03-12T00:10:17;24.90;99.90
27781;DHT22;15167;1.318;103.762;2023-03-12T00:12:43;24.90;99.90
27781;DHT22;15167;1.318;103.762;2023-03-12T00:15:09;25.00;99.90
27781;DHT22;15167;1.318;103.762;2023-03-12T00:17:36;25.00;99.90
27781;DHT22;15167;1.318;103.762;2023-03-12T00:20:02;25.00;99.90
27781;DHT22;15167;1.318;103.762;2023-03-12T00:22:29;25.10;91.40
27781;DHT22;15167;1.318;103.762;2023-03-12T00:24:56;25.10;75.20
27781;DHT22;15167;1.318;103.762;2023-03-12T00:27:22;25.10;44.40
27781;DHT22;15167;1.318;103.762;2023-03-12T00:29:48;25.20;32.50
27781;DHT22;15167;1.318;103.762;2023-03-12T00:32:15;25.20;21.00
27781;DHT22;15167;1.318;103.762;2023-03-12T00:34:41;25.30;16.70
27781;DHT22;15167;1.318;103.762;2023-03-12T00:37:07;25.30;7.70
27781;DHT22;15167;1.318;103.762;2023-03-12T00:39:34;25.40;1.00
27781;DHT22;15167;1.318;103.762;2023-03-12T00:42:00;25.40;1.00
27781;DHT22;15167;1.318;103.762;2023-03-12T00:44:26;25.50;1.00
27781;DHT22;15167;1.318;103.762;2023-03-12T00:46:53;25.50;1.00
27781;DHT22;15167;1.318;103.762;2023-03-12T00:49:19;25.60;1.00
27781;DHT22;15167;1.318;103.762;2023-03-12T00:51:45;25.60;1.00
27781;DHT22;15167;1.318;103.762;2023-03-12T00:54:11;25.70;1.00
27781;DHT22;15167;1.318;103.762;2023-03-12T00:56:37;25.70;1.00
27781;DHT22;15167;1.318;103.762;2023-03-12T00:59:03;25.70;1.00
27781;DHT22;15167;1.318;103.762;2023-03-12T01:01:30;25.60;1.00
27781;DHT22;15167;1.318;103.762;2023-03-12T01:03:56;25.70;1.00
27781;DHT22;15167;1.318;103.762;2023-03-12T01:06:24;25.70;1.00
27781;DHT22;15167;1.318;103.762;2023-03-12T01:08:50;25.70;99.90
27781;DHT22;15167;1.318;103.762;2023-03-12T01:11:17;25.70;99.90
27781;DHT22;15167;1.318;103.762;2023-03-12T01:13:44;25.70;99.90
27781;DHT22;15167;1.318;103.762;2023-03-12T01:16:10;25.70;99.90
27781;DHT22;15167;1.318;103.762;2023-03-12T01:18:36;25.80;99.90
27781;DHT22;15167;1.318;103.762;2023-03-12T01:21:02;25.90;99.90
27781;DHT22;15167;1.318;103.762;2023-03-12T01:23:29;25.90;99.90
27781;DHT22;15167;1.318;103.762;2023-03-12T01:25:55;25.90;99.90
27781;DHT22;15167;1.318;103.762;2023-03-12T01:28:22;26.00;99.90
27781;DHT22;15167;1.318;103.762;2023-03-12T01:30:48;26.10;99.90
27781;DHT22;15167;1.318;103.762;2023-03-12T01:33:14;26.10;99.90
27781;DHT22;15167;1.318;103.762;2023-03-12T01:35:41;26.10;99.90
27781;DHT22;15167;1.318;103.762;2023-03-12T01:38:08;26.20;99.90
27781;DHT22;15167;1.318;103.762;2023-03-12T01:40:37;26.20;99.90
27781;DHT22;15167;1.318;103.762;2023-03-12T01:46:05;26.50;99.90
27781;DHT22;15167;1.318;103.762;2023-03-12T01:48:42;26.70;99.90
27781;DHT22;15167;1.318;103.762;2023-03-12T01:51:09;26.70;99.90
27781;DHT22;15167;1.318;103.762;2023-03-12T01:53:37;26.80;99.90
27781;DHT22;15167;1.318;103.762;2023-03-12T01:56:03;26.80;99.90
27781;DHT22;15167;1.318;103.762;2023-03-12T01:58:30;26.80;99.90
27781;DHT22;15167;1.318;103.762;2023-03-12T02:00:58;26.80;99.90
27781;DHT22;15167;1.318;103.762;2023-03-12T02:03:25;26.80;99.90
27781;DHT22;15167;1.318;103.762;2023-03-12T02:05:55;26.80;99.90
27781;DHT22;15167;1.318;103.762;2023-03-12T02:08:23;26.80;99.90
27781;DHT22;15167;1.318;103.762;2023-03-12T02:10:49;26.80;99.90
27781;DHT22;15167;1.318;103.762;2023-03-12T02:13:15;26.70;99.90
27781;DHT22;15167;1.318;103.762;2023-03-12T02:15:41;26.70;99.90
27781;DHT22;15167;1.318;103.762;2023-03-12T02:18:08;26.80;92.20
27781;DHT22;15167;1.318;103.762;2023-03-12T02:23:09;26.70;94.30
27781;DHT22;15167;1.318;103.762;2023-03-12T02:25:38;26.80;96.50
27781;DHT22;15167;1.318;103.762;2023-03-12T02:28:09;26.80;88.40
27781;DHT22;15167;1.318;103.762;2023-03-12T02:30:37;26.80;76.10
27781;DHT22;15167;1.318;103.762;2023-03-12T02:33:05;26.90;89.10
27781;DHT22;15167;1.318;103.762;2023-03-12T02:35:32;26.90;64.80
27781;DHT22;15167;1.318;103.762;2023-03-12T02:37:59;26.90;52.60
27781;DHT22;15167;1.318;103.762;2023-03-12T02:40:36;26.90;24.80
27781;DHT22;15167;1.318;103.762;2023-03-12T02:43:05;26.90;19.00
27781;DHT22;15167;1.318;103.762;2023-03-12T02:45:31;26.90;9.30
27781;DHT22;15167;1.318;103.762;2023-03-12T02:47:58;27.00;9.60
27781;DHT22;15167;1.318;103.762;2023-03-12T02:50:24;27.10;6.30
27781;DHT22;15167;1.318;103.762;2023-03-12T02:52:50;27.20;1.00
27781;DHT22;15167;1.318;103.762;2023-03-12T02:55:17;27.20;1.00
27781;DHT22;15167;1.318;103.762;2023-03-12T02:57:43;27.30;1.00
27781;DHT22;15167;1.318;103.762;2023-03-12T03:00:09;27.40;1.00
27781;DHT22;15167;1.318;103.762;2023-03-12T03:02:39;27.40;1.00
27781;DHT22;15167;1.318;103.762;2023-03-12T03:05:06;27.50;1.00
27781;DHT22;15167;1.318;103.762;2023-03-12T03:07:32;27.50;1.00
27781;DHT22;15167;1.318;103.762;2023-03-12T03:09:58;27.60;1.00
27781;DHT22;15167;1.318;103.762;2023-03-12T03:12:29;27.70;1.00
27781;DHT22;15167;1.318;103.762;2023-03-12T03:14:55;27.80;1.00
27781;DHT22;15167;1.318;103.762;2023-03-12T03:17:22;27.80;1.00
27781;DHT22;15167;1.318;103.762;2023-03-12T03:19:49;27.80;1.00
27781;DHT22;15167;1.318;103.762;2023-03-12T03:22:16;27.90;99.90
27781;DHT22;15167;1.318;103.762;2023-03-12T03:24:42;28.10;99.90
27781;DHT22;15167;1.318;103.762;2023-03-12T03:27:09;28.20;99.90
27781;DHT22;15167;1.318;103.762;2023-03-12T03:29:35;28.20;99.90
27781;DHT22;15167;1.318;103.762;2023-03-12T03:32:01;28.30;99.90
27781;DHT22;15167;1.318;103.762;2023-03-12T03:34:27;28.30;99.90
27781;DHT22;15167;1.318;103.762;2023-03-12T03:36:53;28.30;99.90
27781;DHT22;15167;1.318;103.762;2023-03-12T03:39:19;28.20;99.90
27781;DHT22;15167;1.318;103.762;2023-03-12T03:41:45;28.30;99.90
27781;DHT22;15167;1.318;103.762;2023-03-12T03:44:12;28.30;99.90
27781;DHT22;15167;1.318;103.762;2023-03-12T03:46:38;28.30;99.90
27781;DHT22;15167;1.318;103.762;2023-03-12T03:49:04;28.40;99.90
27781;DHT22;15167;1.318;103.762;2023-03-12T03:51:31;28.40;99.90
27781;DHT22;15167;1.318;103.762;2023-03-12T03:53:57;28.50;99.90
27781;DHT22;15167;1.318;103.762;2023-03-12T03:56:25;28.60;99.90
27781;DHT22;15167;1.318;103.762;2023-03-12T03:58:51;28.70;99.90
27781;DHT22;15167;1.318;103.762;2023-03-12T04:01:17;28.80;99.90
27781;DHT22;15167;1.318;103.762;2023-03-12T04:03:43;28.90;16.30
27781;DHT22;15167;1.318;103.762;2023-03-12T04:06:09;29.10;50.60
27781;DHT22;15167;1.318;103.762;2023-03-12T04:08:36;29.40;15.10
27781;DHT22;15167;1.318;103.762;2023-03-12T04:11:10;29.50;1.00
27781;DHT22;15167;1.318;103.762;2023-03-12T04:13:36;29.40;1.00
27781;DHT22;15167;1.318;103.762;2023-03-12T04:16:02;29.30;1.00
27781;DHT22;15167;1.318;103.762;2023-03-12T04:18:29;29.10;1.00
27781;DHT22;15167;1.318;103.762;2023-03-12T04:20:55;29.20;1.00
27781;DHT22;15167;1.318;103.762;2023-03-12T04:23:21;29.20;1.00
27781;DHT22;15167;1.318;103.762;2023-03-12T04:25:47;30.00;1.00
27781;DHT22;15167;1.318;103.762;2023-03-12T04:28:13;29.40;1.00
27781;DHT22;15167;1.318;103.762;2023-03-12T04:30:40;29.50;1.00
27781;DHT22;15167;1.318;103.762;2023-03-12T04:33:06;29.40;1.00
27781;DHT22;15167;1.318;103.762;2023-03-12T04:35:32;29.50;1.00
27781;DHT22;15167;1.318;103.762;2023-03-12T04:38:01;29.60;1.00
27781;DHT22;15167;1.318;103.762;2023-03-12T04:40:27;29.80;1.00
27781;DHT22;15167;1.318;103.762;2023-03-12T04:42:54;29.90;99.90
27781;DHT22;15167;1.318;103.762;2023-03-12T04:45:20;29.70;99.90
27781;DHT22;15167;1.318;103.762;2023-03-12T04:47:46;29.70;99.90
27781;DHT22;15167;1.318;103.762;2023-03-12T04:50:12;29.90;99.90
27781;DHT22;15167;1.318;103.762;2023-03-12T04:52:38;30.00;99.90
27781;DHT22;15167;1.318;103.762;2023-03-12T04:55:05;30.00;99.90
27781;DHT22;15167;1.318;103.762;2023-03-12T04:57:31;30.20;53.20
27781;DHT22;15167;1.318;103.762;2023-03-12T04:59:57;30.30;70.30
27781;DHT22;15167;1.318;103.762;2023-03-12T05:02:23;30.40;1.00
27781;DHT22;15167;1.318;103.762;2023-03-12T05:04:49;30.50;1.00
27781;DHT22;15167;1.318;103.762;2023-03-12T05:07:15;30.30;1.00
27781;DHT22;15167;1.318;103.762;2023-03-12T05:09:42;30.30;1.00
27781;DHT22;15167;1.318;103.762;2023-03-12T05:12:08;30.40;1.00
27781;DHT22;15167;1.318;103.762;2023-03-12T05:14:35;30.50;1.00
27781;DHT22;15167;1.318;103.762;2023-03-12T05:17:03;30.60;99.90
27781;DHT22;15167;1.318;103.762;2023-03-12T05:19:30;30.40;99.90
27781;DHT22;15167;1.318;103.762;2023-03-12T05:21:56;30.20;1.00
27781;DHT22;15167;1.318;103.762;2023-03-12T05:24:22;30.30;1.00
27781;DHT22;15167;1.318;103.762;2023-03-12T05:26:49;30.60;99.90
27781;DHT22;15167;1.318;103.762;2023-03-12T05:29:15;30.70;99.90
27781;DHT22;15167;1.318;103.762;2023-03-12T05:31:41;30.60;1.00
27781;DHT22;15167;1.318;103.762;2023-03-12T05:34:09;30.60;1.00
27781;DHT22;15167;1.318;103.762;2023-03-12T05:36:35;30.60;55.90
27781;DHT22;15167;1.318;103.762;2023-03-12T05:39:01;30.70;33.10
27781;DHT22;15167;1.318;103.762;2023-03-12T05:41:29;30.80;2.30
27781;DHT22;15167;1.318;103.762;2023-03-12T05:43:56;31.00;99.90
27781;DHT22;15167;1.318;103.762;2023-03-12T05:46:22;31.00;1.00
27781;DHT22;15167;1.318;103.762;2023-03-12T05:48:49;31.00;1.00
27781;DHT22;15167;1.318;103.762;2023-03-12T05:51:15;31.10;1.00
27781;DHT22;15167;1.318;103.762;2023-03-12T05:53:42;31.10;99.90
27781;DHT22;15167;1.318;103.762;2023-03-12T05:56:10;31.20;99.90
27781;DHT22;15167;1.318;103.762;2023-03-12T05:58:37;31.30;99.90
27781;DHT22;15167;1.318;103.762;2023-03-12T06:01:09;31.40;90.60
27781;DHT22;15167;1.318;103.762;2023-03-12T06:03:35;31.40;99.90
27781;DHT22;15167;1.318;103.762;2023-03-12T06:06:01;31.30;99.90
27781;DHT22;15167;1.318;103.762;2023-03-12T06:08:27;31.20;99.90
27781;DHT22;15167;1.318;103.762;2023-03-12T06:10:54;31.10;99.90
27781;DHT22;15167;1.318;103.762;2023-03-12T06:13:20;31.00;99.90
27781;DHT22;15167;1.318;103.762;2023-03-12T06:15:47;30.90;1.00
27781;DHT22;15167;1.318;103.762;2023-03-12T06:18:13;30.80;1.00
27781;DHT22;15167;1.318;103.762;2023-03-12T06:20:40;30.80;1.00
27781;DHT22;15167;1.318;103.762;2023-03-12T06:23:06;30.80;2.30
27781;DHT22;15167;1.318;103.762;2023-03-12T06:25:32;30.70;32.30
27781;DHT22;15167;1.318;103.762;2023-03-12T06:27:58;30.60;82.80
27781;DHT22;15167;1.318;103.762;2023-03-12T06:30:25;30.50;99.90
27781;DHT22;15167;1.318;103.762;2023-03-12T06:32:52;30.50;99.90
27781;DHT22;15167;1.318;103.762;2023-03-12T06:35:18;30.50;99.90
27781;DHT22;15167;1.318;103.762;2023-03-12T06:37:47;30.40;99.90
27781;DHT22;15167;1.318;103.762;2023-03-12T06:40:13;30.40;99.90
27781;DHT22;15167;1.318;103.762;2023-03-12T06:42:39;30.60;99.90
27781;DHT22;15167;1.318;103.762;2023-03-12T06:45:05;30.80;67.30
27781;DHT22;15167;1.318;103.762;2023-03-12T06:47:32;31.00;6.90
27781;DHT22;15167;1.318;103.762;2023-03-12T06:49:58;31.00;1.00
27781;DHT22;15167;1.318;103.762;2023-03-12T06:52:25;30.90;60.70
27781;DHT22;15167;1.318;103.762;2023-03-12T06:54:51;30.70;83.90
27781;DHT22;15167;1.318;103.762;2023-03-12T06:57:17;30.60;96.60
27781;DHT22;15167;1.318;103.762;2023-03-12T06:59:43;30.40;99.90
27781;DHT22;15167;1.318;103.762;2023-03-12T07:02:10;30.30;99.90
27781;DHT22;15167;1.318;103.762;2023-03-12T07:04:36;30.30;99.90
27781;DHT22;15167;1.318;103.762;2023-03-12T07:07:02;30.30;99.90
27781;DHT22;15167;1.318;103.762;2023-03-12T07:09:29;30.30;99.90
27781;DHT22;15167;1.318;103.762;2023-03-12T07:11:55;30.20;99.90
27781;DHT22;15167;1.318;103.762;2023-03-12T07:14:21;30.30;99.90
27781;DHT22;15167;1.318;103.762;2023-03-12T07:16:47;30.30;99.90
27781;DHT22;15167;1.318;103.762;2023-03-12T07:19:14;30.20;99.90
27781;DHT22;15167;1.318;103.762;2023-03-12T07:21:40;30.30;99.90
27781;DHT22;15167;1.318;103.762;2023-03-12T07:24:06;30.40;99.90
27781;DHT22;15167;1.318;103.762;2023-03-12T07:26:33;30.60;99.90
27781;DHT22;15167;1.318;103.762;2023-03-12T07:29:00;30.70;86.70
27781;DHT22;15167;1.318;103.762;2023-03-12T07:31:26;30.70;1.00
27781;DHT22;15167;1.318;103.762;2023-03-12T07:33:52;30.70;1.00
27781;DHT22;15167;1.318;103.762;2023-03-12T07:36:18;30.80;1.00
27781;DHT22;15167;1.318;103.762;2023-03-12T07:38:44;30.90;1.00
27781;DHT22;15167;1.318;103.762;2023-03-12T07:41:10;31.00;99.90
27781;DHT22;15167;1.318;103.762;2023-03-12T07:43:37;31.00;1.00
27781;DHT22;15167;1.318;103.762;2023-03-12T07:46:03;31.10;1.00
27781;DHT22;15167;1.318;103.762;2023-03-12T07:48:29;31.10;1.00
27781;DHT22;15167;1.318;103.762;2023-03-12T07:50:55;31.10;1.00
27781;DHT22;15167;1.318;103.762;2023-03-12T07:53:21;31.00;99.90
27781;DHT22;15167;1.318;103.762;2023-03-12T07:55:48;30.90;1.00
27781;DHT22;15167;1.318;103.762;2023-03-12T07:58:14;30.80;1.00
27781;DHT22;15167;1.318;103.762;2023-03-12T08:00:41;30.80;1.00
27781;DHT22;15167;1.318;103.762;2023-03-12T08:03:07;30.80;1.00
27781;DHT22;15167;1.318;103.762;2023-03-12T08:05:33;30.60;65.40
27781;DHT22;15167;1.318;103.762;2023-03-12T08:07:59;30.20;99.90
27781;DHT22;15167;1.318;103.762;2023-03-12T08:10:25;29.40;99.90
27781;DHT22;15167;1.318;103.762;2023-03-12T08:12:51;28.60;1.00
27781;DHT22;15167;1.318;103.762;2023-03-12T08:15:17;28.30;1.00
27781;DHT22;15167;1.318;103.762;2023-03-12T08:17:43;28.30;1.00
27781;DHT22;15167;1.318;103.762;2023-03-12T08:20:09;28.50;1.00
27781;DHT22;15167;1.318;103.762;2023-03-12T08:22:36;28.70;1.00
27781;DHT22;15167;1.318;103.762;2023-03-12T08:25:03;29.00;1.00
27781;DHT22;15167;1.318;103.762;2023-03-12T08:27:29;29.20;1.00
27781;DHT22;15167;1.318;103.762;2023-03-12T08:29:56;29.10;1.00
27781;DHT22;15167;1.318;103.762;2023-03-12T08:32:22;29.00;1.00
27781;DHT22;15167;1.318;103.762;2023-03-12T08:34:48;28.80;1.00
27781;DHT22;15167;1.318;103.762;2023-03-12T08:37:14;28.90;1.00
27781;DHT22;15167;1.318;103.762;2023-03-12T08:39:40;28.70;1.00
27781;DHT22;15167;1.318;103.762;2023-03-12T08:42:06;28.70;1.00
27781;DHT22;15167;1.318;103.762;2023-03-12T08:44:33;28.70;1.00
27781;DHT22;15167;1.318;103.762;2023-03-12T08:46:59;28.90;1.00
27781;DHT22;15167;1.318;103.762;2023-03-12T08:49:25;29.10;1.00
27781;DHT22;15167;1.318;103.762;2023-03-12T08:51:51;29.10;99.90
27781;DHT22;15167;1.318;103.762;2023-03-12T08:54:18;29.00;1.00
27781;DHT22;15167;1.318;103.762;2023-03-12T08:56:47;28.80;1.00
27781;DHT22;15167;1.318;103.762;2023-03-12T08:59:14;28.60;1.00
27781;DHT22;15167;1.318;103.762;2023-03-12T09:01:40;28.40;1.00
27781;DHT22;15167;1.318;103.762;2023-03-12T09:04:06;28.10;2.10
27781;DHT22;15167;1.318;103.762;2023-03-12T09:06:32;27.90;73.10
27781;DHT22;15167;1.318;103.762;2023-03-12T09:08:59;27.60;96.60
27781;DHT22;15167;1.318;103.762;2023-03-12T09:11:30;27.60;99.90
27781;DHT22;15167;1.318;103.762;2023-03-12T09:13:57;27.80;99.90
27781;DHT22;15167;1.318;103.762;2023-03-12T09:16:23;27.90;99.90
27781;DHT22;15167;1.318;103.762;2023-03-12T09:18:49;28.10;98.80
27781;DHT22;15167;1.318;103.762;2023-03-12T09:21:15;28.40;81.00
27781;DHT22;15167;1.318;103.762;2023-03-12T09:23:42;28.50;36.90
27781;DHT22;15167;1.318;103.762;2023-03-12T09:26:09;28.40;31.50
27781;DHT22;15167;1.318;103.762;2023-03-12T09:28:35;28.30;24.50
27781;DHT22;15167;1.318;103.762;2023-03-12T09:31:02;28.20;28.50
27781;DHT22;15167;1.318;103.762;2023-03-12T09:33:28;28.10;40.30
27781;DHT22;15167;1.318;103.762;2023-03-12T09:35:57;28.10;17.60
27781;DHT22;15167;1.318;103.762;2023-03-12T09:38:24;28.00;26.30
27781;DHT22;15167;1.318;103.762;2023-03-12T09:40:50;28.00;40.20
27781;DHT22;15167;1.318;103.762;2023-03-12T09:43:20;28.10;54.80
27781;DHT22;15167;1.318;103.762;2023-03-12T09:45:47;28.20;45.40
27781;DHT22;15167;1.318;103.762;2023-03-12T09:48:31;28.20;36.50
27781;DHT22;15167;1.318;103.762;2023-03-12T09:51:02;28.20;25.00
27781;DHT22;15167;1.318;103.762;2023-03-12T09:53:32;28.30;37.60
27781;DHT22;15167;1.318;103.762;2023-03-12T09:56:01;28.30;16.20
27781;DHT22;15167;1.318;103.762;2023-03-12T09:58:30;28.30;5.80
27781;DHT22;15167;1.318;103.762;2023-03-12T10:01:01;28.30;1.00
27781;DHT22;15167;1.318;103.762;2023-03-12T10:06:20;28.20;1.00
27781;DHT22;15167;1.318;103.762;2023-03-12T10:09:06;28.30;1.00
27781;DHT22;15167;1.318;103.762;2023-03-12T10:14:37;28.20;1.00
27781;DHT22;15167;1.318;103.762;2023-03-12T10:24:47;28.20;1.00
27781;DHT22;15167;1.318;103.762;2023-03-12T10:27:16;28.20;1.00
27781;DHT22;15167;1.318;103.762;2023-03-12T10:29:43;28.20;1.00
27781;DHT22;15167;1.318;103.762;2023-03-12T10:34:51;28.10;1.00
27781;DHT22;15167;1.318;103.762;2023-03-12T10:39:51;27.90;1.00
27781;DHT22;15167;1.318;103.762;2023-03-12T10:42:22;27.80;1.00
27781;DHT22;15167;1.318;103.762;2023-03-12T10:45:33;27.80;1.00
27781;DHT22;15167;1.318;103.762;2023-03-12T10:47:38;27.70;1.00
27781;DHT22;15167;1.318;103.762;2023-03-12T10:52:37;27.50;1.00
27781;DHT22;15167;1.318;103.762;2023-03-12T10:55:24;27.40;1.00
27781;DHT22;15167;1.318;103.762;2023-03-12T10:57:51;27.40;1.00
27781;DHT22;15167;1.318;103.762;2023-03-12T11:00:25;26.80;1.00
27781;DHT22;15167;1.318;103.762;2023-03-12T11:03:33;27.20;1.00
27781;DHT22;15167;1.318;103.762;2023-03-12T11:05:47;27.20;1.00
27781;DHT22;15167;1.318;103.762;2023-03-12T11:08:21;27.10;1.00
27781;DHT22;15167;1.318;103.762;2023-03-12T11:10:48;27.10;1.00
27781;DHT22;15167;1.318;103.762;2023-03-12T11:13:28;27.00;1.00
27781;DHT22;15167;1.318;103.762;2023-03-12T11:15:55;26.90;1.00
27781;DHT22;15167;1.318;103.762;2023-03-12T11:18:24;26.90;4.30
27781;DHT22;15167;1.318;103.762;2023-03-12T11:20:51;26.80;5.80
27781;DHT22;15167;1.318;103.762;2023-03-12T11:23:23;26.80;5.50
27781;DHT22;15167;1.318;103.762;2023-03-12T11:25:53;26.80;8.30
27781;DHT22;15167;1.318;103.762;2023-03-12T11:28:22;26.70;18.60
27781;DHT22;15167;1.318;103.762;2023-03-12T11:30:49;26.70;25.30
27781;DHT22;15167;1.318;103.762;2023-03-12T11:33:16;26.70;30.10
27781;DHT22;15167;1.318;103.762;2023-03-12T11:36:04;26.70;39.50
27781;DHT22;15167;1.318;103.762;2023-03-12T11:41:23;26.60;53.00
27781;DHT22;15167;1.318;103.762;2023-03-12T11:46:20;26.50;61.50
27781;DHT22;15167;1.318;103.762;2023-03-12T11:48:59;26.50;66.10
27781;DHT22;15167;1.318;103.762;2023-03-12T11:54:47;26.40;76.20
27781;DHT22;15167;1.318;103.762;2023-03-12T12:03:11;26.30;94.30
27781;DHT22;15167;1.318;103.762;2023-03-12T12:08:17;26.30;99.90
27781;DHT22;15167;1.318;103.762;2023-03-12T12:13:14;26.30;99.90
27781;DHT22;15167;1.318;103.762;2023-03-12T12:21:01;26.30;99.90
27781;DHT22;15167;1.318;103.762;2023-03-12T12:23:41;26.30;99.90
27781;DHT22;15167;1.318;103.762;2023-03-12T12:26:11;26.20;99.90
27781;DHT22;15167;1.318;103.762;2023-03-12T12:28:47;26.20;99.90
27781;DHT22;15167;1.318;103.762;2023-03-12T12:36:35;26.20;99.90
27781;DHT22;15167;1.318;103.762;2023-03-12T12:39:12;26.10;99.90
27781;DHT22;15167;1.318;103.762;2023-03-12T12:41:44;26.10;99.90
27781;DHT22;15167;1.318;103.762;2023-03-12T12:44:14;26.10;99.90
27781;DHT22;15167;1.318;103.762;2023-03-12T12:46:42;26.00;99.90
27781;DHT22;15167;1.318;103.762;2023-03-12T12:49:17;26.00;99.90
27781;DHT22;15167;1.318;103.762;2023-03-12T12:51:48;26.00;99.90
27781;DHT22;15167;1.318;103.762;2023-03-12T12:54:24;26.00;99.90
27781;DHT22;15167;1.318;103.762;2023-03-12T13:02:04;26.00;99.90
27781;DHT22;15167;1.318;103.762;2023-03-12T13:04:38;26.00;99.90
27781;DHT22;15167;1.318;103.762;2023-03-12T13:09:44;26.00;99.90
27781;DHT22;15167;1.318;103.762;2023-03-12T13:12:30;25.90;99.90
27781;DHT22;15167;1.318;103.762;2023-03-12T13:14:57;25.90;99.90
27781;DHT22;15167;1.318;103.762;2023-03-12T13:17:34;25.90;99.90
27781;DHT22;15167;1.318;103.762;2023-03-12T13:22:53;25.90;99.90
27781;DHT22;15167;1.318;103.762;2023-03-12T13:27:58;25.90;99.90
27781;DHT22;15167;1.318;103.762;2023-03-12T13:43:10;25.80;99.90
27781;DHT22;15167;1.318;103.762;2023-03-12T13:46:19;25.80;99.90
27781;DHT22;15167;1.318;103.762;2023-03-12T13:48:30;25.70;99.90
27781;DHT22;15167;1.318;103.762;2023-03-12T13:50:59;25.80;99.90
27781;DHT22;15167;1.318;103.762;2023-03-12T13:53:36;25.80;99.90
27781;DHT22;15167;1.318;103.762;2023-03-12T13:58:40;25.70;99.90
27781;DHT22;15167;1.318;103.762;2023-03-12T14:01:12;25.70;99.90
27781;DHT22;15167;1.318;103.762;2023-03-12T14:03:44;25.70;99.90
27781;DHT22;15167;1.318;103.762;2023-03-12T14:06:17;25.70;99.90
27781;DHT22;15167;1.318;103.762;2023-03-12T14:08:59;25.70;99.90
27781;DHT22;15167;1.318;103.762;2023-03-12T14:11:33;25.70;99.90
27781;DHT22;15167;1.318;103.762;2023-03-12T14:16:49;25.70;99.90
27781;DHT22;15167;1.318;103.762;2023-03-12T14:19:17;25.70;99.90
27781;DHT22;15167;1.318;103.762;2023-03-12T14:21:46;25.70;99.90
27781;DHT22;15167;1.318;103.762;2023-03-12T14:24:31;25.70;99.90
27781;DHT22;15167;1.318;103.762;2023-03-12T14:26:59;25.70;99.90
27781;DHT22;15167;1.318;103.762;2023-03-12T14:29:27;25.60;99.90
27781;DHT22;15167;1.318;103.762;2023-03-12T14:31:55;25.60;99.90
27781;DHT22;15167;1.318;103.762;2023-03-12T14:34:26;25.60;99.90
27781;DHT22;15167;1.318;103.762;2023-03-12T14:41:58;25.60;99.90
27781;DHT22;15167;1.318;103.762;2023-03-12T14:44:26;25.60;99.90
27781;DHT22;15167;1.318;103.762;2023-03-12T14:46:56;25.60;99.90
27781;DHT22;15167;1.318;103.762;2023-03-12T14:49:23;25.60;99.90
27781;DHT22;15167;1.318;103.762;2023-03-12T14:51:49;25.50;99.90
27781;DHT22;15167;1.318;103.762;2023-03-12T14:54:21;25.60;99.90
27781;DHT22;15167;1.318;103.762;2023-03-12T14:56:48;25.60;99.90
27781;DHT22;15167;1.318;103.762;2023-03-12T14:59:26;25.60;99.90
27781;DHT22;15167;1.318;103.762;2023-03-12T15:01:57;25.60;99.90
27781;DHT22;15167;1.318;103.762;2023-03-12T15:04:24;25.50;99.90
27781;DHT22;15167;1.318;103.762;2023-03-12T15:06:56;25.50;99.90
27781;DHT22;15167;1.318;103.762;2023-03-12T15:09:29;25.50;99.90
27781;DHT22;15167;1.318;103.762;2023-03-12T15:12:07;25.50;99.90
27781;DHT22;15167;1.318;103.762;2023-03-12T15:14:42;25.50;99.90
27781;DHT22;15167;1.318;103.762;2023-03-12T15:17:11;25.40;99.90
27781;DHT22;15167;1.318;103.762;2023-03-12T15:19:40;25.40;99.90
27781;DHT22;15167;1.318;103.762;2023-03-12T15:22:12;25.40;1.00
27781;DHT22;15167;1.318;103.762;2023-03-12T15:24:40;25.40;1.00
27781;DHT22;15167;1.318;103.762;2023-03-12T15:29:48;25.30;1.00
27781;DHT22;15167;1.318;103.762;2023-03-12T15:32:14;25.30;1.00
27781;DHT22;15167;1.318;103.762;2023-03-12T15:34:42;25.30;1.00
27781;DHT22;15167;1.318;103.762;2023-03-12T15:37:19;25.30;1.00
27781;DHT22;15167;1.318;103.762;2023-03-12T15:39:46;25.40;1.00
27781;DHT22;15167;1.318;103.762;2023-03-12T15:42:16;25.30;1.00
27781;DHT22;15167;1.318;103.762;2023-03-12T15:44:53;25.30;1.00
27781;DHT22;15167;1.318;103.762;2023-03-12T15:47:25;25.30;1.00
27781;DHT22;15167;1.318;103.762;2023-03-12T15:49:57;25.30;1.00
27781;DHT22;15167;1.318;103.762;2023-03-12T15:52:28;25.30;1.00
27781;DHT22;15167;1.318;103.762;2023-03-12T15:55:03;25.30;1.00
27781;DHT22;15167;1.318;103.762;2023-03-12T15:57:30;25.30;1.00
27781;DHT22;15167;1.318;103.762;2023-03-12T16:02:58;25.30;1.00
27781;DHT22;15167;1.318;103.762;2023-03-12T16:05:29;25.30;1.00
27781;DHT22;15167;1.318;103.762;2023-03-12T16:07:55;25.30;1.00
27781;DHT22;15167;1.318;103.762;2023-03-12T16:10:23;25.30;1.00
27781;DHT22;15167;1.318;103.762;2023-03-12T16:12:50;25.30;1.00
27781;DHT22;15167;1.318;103.762;2023-03-12T16:15:24;25.30;1.00
27781;DHT22;15167;1.318;103.762;2023-03-12T16:17:51;25.30;1.00
27781;DHT22;15167;1.318;103.762;2023-03-12T16:20:17;25.30;1.00
27781;DHT22;15167;1.318;103.762;2023-03-12T16:22:44;25.30;1.00
27781;DHT22;15167;1.318;103.762;2023-03-12T16:25:10;25.30;1.00
27781;DHT22;15167;1.318;103.762;2023-03-12T16:27:38;25.20;1.00
27781;DHT22;15167;1.318;103.762;2023-03-12T16:30:09;25.20;1.00
27781;DHT22;15167;1.318;103.762;2023-03-12T16:32:37;25.30;1.00
27781;DHT22;15167;1.318;103.762;2023-03-12T16:35:10;25.20;1.00
27781;DHT22;15167;1.318;103.762;2023-03-12T16:37:37;25.20;1.00
27781;DHT22;15167;1.318;103.762;2023-03-12T16:40:03;25.20;1.00
27781;DHT22;15167;1.318;103.762;2023-03-12T16:42:30;25.20;1.00
27781;DHT22;15167;1.318;103.762;2023-03-12T16:44:58;25.20;1.00
27781;DHT22;15167;1.318;103.762;2023-03-12T16:47:25;25.20;1.00
27781;DHT22;15167;1.318;103.762;2023-03-12T16:49:51;25.20;1.00
27781;DHT22;15167;1.318;103.762;2023-03-12T16:52:19;25.20;1.00
27781;DHT22;15167;1.318;103.762;2023-03-12T16:54:47;25.20;1.00
27781;DHT22;15167;1.318;103.762;2023-03-12T16:57:19;25.20;7.90
27781;DHT22;15167;1.318;103.762;2023-03-12T16:59:47;25.10;12.90
27781;DHT22;15167;1.318;103.762;2023-03-12T17:02:15;25.10;16.10
27781;DHT22;15167;1.318;103.762;2023-03-12T17:04:42;25.10;20.80
27781;DHT22;15167;1.318;103.762;2023-03-12T17:07:08;25.10;21.60